Time;durP1;ratioP1;P1;durP2;ratioP2;P2;SDS_P1;SDS_P2;PMS_P1;PMS_P2;Temp;Humidity;BMP_temperature;BMP_pressure;BME280_temperature;BME280_humidity;BME280_pressure;Samples;Min_cycle;Max_cycle;Signal;HPM_P1;HPM_P2
2021/03/05 00:00:47;;;;;;;11.40;6.65;;;9.10;72.30;;;;;;4994674;28;20033;-66
2021/03/05 00:03:15;;;;;;;10.45;6.20;;;9.10;72.30;;;;;;4990170;28;20045;-66
2021/03/05 00:05:43;;;;;;;9.50;5.60;;;9.10;72.10;;;;;;4989001;28;20113;-67
2021/03/05 00:08:16;;;;;;;10.65;5.80;;;9.00;72.00;;;;;;4986557;28;20042;-66
2021/03/05 00:10:45;;;;;;;11.23;6.15;;;9.00;72.50;;;;;;4987813;28;20074;-66
2021/03/05 00:13:12;;;;;;;10.88;6.68;;;9.10;72.10;;;;;;4986691;28;21023;-67
2021/03/05 00:15:45;;;;;;;10.57;6.68;;;9.10;71.90;;;;;;4990425;28;20456;-67
2021/03/05 00:18:14;;;;;;;9.05;6.28;;;9.10;72.00;;;;;;4989543;28;20042;-67
2021/03/05 00:20:48;;;;;;;8.80;6.22;;;9.10;71.80;;;;;;4987490;28;20124;-67
2021/03/05 00:23:22;;;;;;;12.63;6.70;;;9.10;72.00;;;;;;4988168;28;20058;-67
2021/03/05 00:25:49;;;;;;;12.25;6.53;;;9.10;71.80;;;;;;4989667;28;20065;-67
2021/03/05 00:28:16;;;;;;;8.93;5.95;;;9.10;71.80;;;;;;4987904;28;20198;-67
2021/03/05 00:30:43;;;;;;;10.13;6.20;;;9.10;71.70;;;;;;4990162;28;20088;-67
2021/03/05 00:33:14;;;;;;;8.80;6.35;;;9.10;71.70;;;;;;4988857;28;20061;-67
2021/03/05 00:35:47;;;;;;;8.07;5.93;;;9.10;72.00;;;;;;4991857;28;20049;-67
2021/03/05 00:38:17;;;;;;;8.93;6.13;;;9.10;72.00;;;;;;4988351;28;20065;-67
2021/03/05 00:40:48;;;;;;;11.77;5.97;;;9.00;72.00;;;;;;4988469;28;20049;-67
2021/03/05 00:43:20;;;;;;;10.50;5.80;;;9.00;72.00;;;;;;4988729;28;20120;-67
2021/03/05 00:45:53;;;;;;;9.18;5.70;;;8.90;72.10;;;;;;5003931;28;20029;-67
2021/03/05 00:48:23;;;;;;;10.07;6.10;;;8.90;72.00;;;;;;4988582;28;20038;-67
2021/03/05 00:50:51;;;;;;;10.38;6.38;;;8.90;72.20;;;;;;4988879;28;20053;-66
2021/03/05 00:53:19;;;;;;;9.90;6.45;;;8.90;72.30;;;;;;4988308;28;20066;-66
2021/03/05 00:55:47;;;;;;;9.40;6.30;;;8.90;72.30;;;;;;4988810;28;20584;-67
2021/03/05 00:58:20;;;;;;;8.45;5.90;;;8.90;72.40;;;;;;4985449;28;20045;-67
2021/03/05 01:00:45;;;;;;;8.00;5.57;;;8.90;72.50;;;;;;4991288;28;20046;-67
2021/03/05 01:03:13;;;;;;;8.43;6.20;;;8.90;72.30;;;;;;4988393;28;20053;-66
2021/03/05 01:05:41;;;;;;;9.95;5.68;;;8.90;72.50;;;;;;4986158;28;20052;-66
2021/03/05 01:08:12;;;;;;;8.82;5.43;;;8.90;72.50;;;;;;4996231;28;20030;-67
2021/03/05 01:10:43;;;;;;;8.60;5.55;;;8.90;72.40;;;;;;4994108;28;20134;-67
2021/03/05 01:13:14;;;;;;;9.88;5.90;;;8.90;72.30;;;;;;4985598;28;20491;-66
2021/03/05 01:15:44;;;;;;;8.68;5.30;;;8.90;72.20;;;;;;4991697;28;20675;-66
2021/03/05 01:18:12;;;;;;;10.77;5.22;;;8.90;72.10;;;;;;4986292;28;20485;-66
2021/03/05 01:20:43;;;;;;;8.70;5.35;;;8.90;72.00;;;;;;4989053;28;20034;-66
2021/03/05 01:23:17;;;;;;;9.43;5.38;;;9.00;72.10;;;;;;4987347;28;20041;-66
2021/03/05 01:25:44;;;;;;;7.70;5.13;;;8.90;72.20;;;;;;4987115;28;20034;-66
2021/03/05 01:28:12;;;;;;;8.85;5.55;;;8.90;72.00;;;;;;4986781;28;20042;-66
2021/03/05 01:30:38;;;;;;;5.78;5.18;;;8.90;71.90;;;;;;4988837;28;20713;-67
2021/03/05 01:33:06;;;;;;;7.80;4.95;;;8.90;72.00;;;;;;4987942;28;20149;-66
2021/03/05 01:35:37;;;;;;;7.35;4.78;;;8.90;72.10;;;;;;4989655;28;20061;-67
2021/03/05 01:38:07;;;;;;;6.90;4.88;;;8.90;72.10;;;;;;4986955;28;20037;-66
2021/03/05 01:40:39;;;;;;;7.97;5.35;;;8.90;72.10;;;;;;4988406;28;20038;-67
2021/03/05 01:43:13;;;;;;;6.55;4.82;;;8.90;72.20;;;;;;4988315;28;20045;-67
2021/03/05 01:45:44;;;;;;;10.25;5.50;;;8.80;72.10;;;;;;4988077;28;20041;-66
2021/03/05 01:48:21;;;;;;;8.00;4.80;;;8.80;72.20;;;;;;4985195;28;20136;-67
2021/03/05 01:51:04;;;;;;;8.38;5.10;;;8.80;72.50;;;;;;4992255;28;20038;-67
2021/03/05 01:53:33;;;;;;;5.90;4.60;;;8.80;72.60;;;;;;4998902;28;20069;-67
2021/03/05 01:55:59;;;;;;;10.60;4.85;;;8.80;72.30;;;;;;4987781;28;20042;-66
2021/03/05 01:58:27;;;;;;;6.97;4.68;;;8.80;72.30;;;;;;4985400;28;20456;-67
2021/03/05 02:01:07;;;;;;;6.20;5.05;;;8.80;72.50;;;;;;4989497;28;20481;-67
2021/03/05 02:03:33;;;;;;;7.32;4.88;;;8.80;72.80;;;;;;4986894;28;20046;-66
2021/03/05 02:06:05;;;;;;;6.50;4.90;;;8.70;72.30;;;;;;4989352;28;20050;-66
2021/03/05 02:08:36;;;;;;;6.32;5.05;;;8.70;72.60;;;;;;4985845;28;20065;-67
2021/03/05 02:11:04;;;;;;;8.20;4.95;;;8.70;72.50;;;;;;4984995;28;20058;-66
2021/03/05 02:13:30;;;;;;;6.50;4.80;;;8.70;72.40;;;;;;4987849;28;20412;-66
2021/03/05 02:16:04;;;;;;;6.93;4.55;;;8.70;72.50;;;;;;4998829;28;20046;-66
2021/03/05 02:18:48;;;;;;;8.65;5.15;;;8.70;72.80;;;;;;4999631;28;20048;-67
2021/03/05 02:21:46;;;;;;;6.78;5.00;;;8.70;73.20;;;;;;5015191;28;20084;-67
2021/03/05 02:25:02;;;;;;;7.70;5.18;;;8.70;73.10;;;;;;4999481;28;20026;-67
2021/03/05 02:28:04;;;;;;;11.43;5.03;;;8.70;73.60;;;;;;4986594;28;20109;-66
2021/03/05 02:30:48;;;;;;;10.20;5.28;;;8.70;73.30;;;;;;4983975;28;20449;-67
2021/03/05 02:33:23;;;;;;;7.17;5.43;;;8.70;72.60;;;;;;4987166;28;20037;-68
2021/03/05 02:35:52;;;;;;;;;;;8.70;73.20;;;;;;4990420;28;20132;-65
2021/03/05 02:38:27;;;;;;;7.97;5.30;;;8.70;73.50;;;;;;4987823;28;19940;-66
2021/03/05 02:41:00;;;;;;;6.78;5.18;;;8.70;72.50;;;;;;4988669;28;20508;-66
2021/03/05 02:43:29;;;;;;;10.63;5.55;;;8.70;72.80;;;;;;4985775;28;20038;-67
2021/03/05 02:46:07;;;;;;;6.95;5.35;;;8.60;72.80;;;;;;5000203;28;20156;-67
2021/03/05 02:48:46;;;;;;;7.18;5.05;;;8.60;73.00;;;;;;4984586;28;22671;-66
2021/03/05 02:51:13;;;;;;;8.60;5.00;;;8.60;73.30;;;;;;4986045;28;20050;-66
2021/03/05 02:53:43;;;;;;;8.18;5.18;;;8.60;73.00;;;;;;4986687;28;20037;-67
2021/03/05 02:56:18;;;;;;;7.22;5.13;;;8.60;73.00;;;;;;4985676;28;20049;-66
2021/03/05 02:58:48;;;;;;;6.90;4.93;;;8.60;73.30;;;;;;4986002;28;20046;-67
2021/03/05 03:01:17;;;;;;;10.88;5.65;;;8.60;73.00;;;;;;4988263;28;20045;-67
2021/03/05 03:03:45;;;;;;;6.80;4.78;;;8.60;73.20;;;;;;4985763;28;20685;-66
2021/03/05 03:06:17;;;;;;;7.57;5.32;;;8.60;73.20;;;;;;4988066;28;20081;-67
2021/03/05 03:08:48;;;;;;;7.03;4.60;;;8.60;73.20;;;;;;4983408;28;20038;-67
2021/03/05 03:11:17;;;;;;;6.72;5.00;;;8.60;73.20;;;;;;4983660;28;20034;-66
2021/03/05 03:13:46;;;;;;;7.95;4.85;;;8.50;73.30;;;;;;4987991;28;20050;-67
2021/03/05 03:16:14;;;;;;;6.15;4.30;;;8.50;73.20;;;;;;4998522;28;21276;-67
2021/03/05 03:18:41;;;;;;;7.05;4.47;;;8.60;73.20;;;;;;4998102;28;20044;-67
2021/03/05 03:21:13;;;;;;;6.22;4.40;;;8.50;73.20;;;;;;4997996;28;20433;-67
2021/03/05 03:23:43;;;;;;;5.50;4.25;;;8.50;73.10;;;;;;5000669;28;21826;-66
2021/03/05 03:26:16;;;;;;;6.85;4.50;;;8.50;73.20;;;;;;4987206;28;20049;-66
2021/03/05 03:28:44;;;;;;;5.93;4.53;;;8.50;73.30;;;;;;4985178;28;20033;-66
2021/03/05 03:31:14;;;;;;;6.68;4.60;;;8.50;73.20;;;;;;4989634;28;20033;-66
2021/03/05 03:33:45;;;;;;;7.07;4.50;;;8.50;73.20;;;;;;4986462;28;20042;-65
2021/03/05 03:36:17;;;;;;;7.65;4.43;;;8.50;73.40;;;;;;4988293;28;20988;-67
2021/03/05 03:38:48;;;;;;;8.43;4.50;;;8.50;73.30;;;;;;4985299;28;20046;-66
2021/03/05 03:41:18;;;;;;;8.10;4.78;;;8.50;73.50;;;;;;4986754;28;20030;-66
2021/03/05 03:43:43;;;;;;;6.72;4.60;;;8.60;73.50;;;;;;4985826;28;20045;-66
2021/03/05 03:46:14;;;;;;;5.53;4.55;;;8.50;73.30;;;;;;4988859;28;20042;-66
2021/03/05 03:48:51;;;;;;;5.70;4.60;;;8.60;73.50;;;;;;4987989;28;20046;-67
2021/03/05 03:51:23;;;;;;;8.10;4.97;;;8.50;73.80;;;;;;4989796;28;20042;-65
2021/03/05 03:53:55;;;;;;;8.95;5.30;;;8.60;73.50;;;;;;4986614;28;20049;-66
2021/03/05 03:56:25;;;;;;;8.05;4.82;;;8.60;73.30;;;;;;4988955;28;21876;-65
2021/03/05 03:58:55;;;;;;;8.27;5.55;;;8.70;73.40;;;;;;4987734;28;20045;-66
2021/03/05 04:01:26;;;;;;;9.48;5.47;;;8.60;73.50;;;;;;4990571;28;20429;-66
2021/03/05 04:03:56;;;;;;;7.40;4.65;;;8.60;73.40;;;;;;5004892;28;20046;-67
2021/03/05 04:06:27;;;;;;;8.82;5.32;;;8.60;73.50;;;;;;4990972;28;20502;-67
2021/03/05 04:09:02;;;;;;;9.63;5.35;;;8.60;73.80;;;;;;4986809;28;20117;-66
2021/03/05 04:11:32;;;;;;;8.95;6.10;;;8.60;73.90;;;;;;4986198;28;20413;-67
2021/03/05 04:13:58;;;;;;;15.18;10.93;;;8.50;74.00;;;;;;4988671;28;20026;-66
2021/03/05 04:16:25;;;;;;;17.20;11.60;;;8.50;73.90;;;;;;5013095;28;20037;-65
2021/03/05 04:18:55;;;;;;;18.95;13.60;;;8.50;73.90;;;;;;4999992;28;20394;-66
2021/03/05 04:21:29;;;;;;;22.05;15.32;;;8.40;73.70;;;;;;5004863;28;20421;-66
2021/03/05 04:23:59;;;;;;;21.58;15.30;;;8.30;74.10;;;;;;5004188;28;20033;-67
2021/03/05 04:26:27;;;;;;;23.63;15.82;;;8.20;73.90;;;;;;5013209;28;20037;-67
2021/03/05 04:28:55;;;;;;;23.33;15.65;;;8.10;74.00;;;;;;4987560;28;22142;-66
2021/03/05 04:31:21;;;;;;;24.80;16.98;;;8.00;74.00;;;;;;4989915;28;20576;-66
2021/03/05 04:33:54;;;;;;;24.35;16.48;;;7.90;74.10;;;;;;4988434;28;20038;-66
2021/03/05 04:36:19;;;;;;;23.92;16.25;;;7.80;74.30;;;;;;4989757;28;20046;-68
2021/03/05 04:38:47;;;;;;;25.02;16.42;;;7.60;74.20;;;;;;4987238;28;20065;-67
2021/03/05 04:41:18;;;;;;;24.05;17.05;;;7.60;74.60;;;;;;4989468;28;20034;-66
2021/03/05 04:43:50;;;;;;;25.95;17.38;;;7.50;74.90;;;;;;4988133;28;20038;-67
2021/03/05 04:46:21;;;;;;;26.75;17.55;;;7.40;75.10;;;;;;4988417;28;22818;-66
2021/03/05 04:48:51;;;;;;;25.20;16.92;;;7.30;75.60;;;;;;4988726;28;20034;-67
2021/03/05 04:51:17;;;;;;;23.95;15.50;;;7.20;75.50;;;;;;4989534;28;20037;-66
2021/03/05 04:53:45;;;;;;;25.05;16.27;;;7.10;75.30;;;;;;4987988;28;20035;-66
2021/03/05 04:56:12;;;;;;;21.52;14.20;;;7.00;75.30;;;;;;4987458;28;20124;-66
2021/03/05 04:58:38;;;;;;;20.27;14.73;;;7.00;75.30;;;;;;4987655;28;20046;-67
2021/03/05 05:01:08;;;;;;;17.92;12.48;;;7.00;75.60;;;;;;4990339;28;20116;-66
2021/03/05 05:03:39;;;;;;;18.60;12.20;;;6.90;75.30;;;;;;4988362;28;20057;-66
2021/03/05 05:06:04;;;;;;;17.27;11.00;;;6.90;74.70;;;;;;4991706;28;20604;-66
2021/03/05 05:08:34;;;;;;;15.10;10.35;;;6.80;74.40;;;;;;4984207;28;20057;-65
2021/03/05 05:11:00;;;;;;;16.25;10.35;;;6.80;74.20;;;;;;4984879;28;20038;-66
2021/03/05 05:13:29;;;;;;;14.93;10.23;;;6.70;74.00;;;;;;4987932;28;20075;-66
2021/03/05 05:15:59;;;;;;;15.65;10.57;;;6.70;73.90;;;;;;4989720;28;20038;-66
2021/03/05 05:18:29;;;;;;;15.60;10.57;;;6.60;74.10;;;;;;4986678;28;20043;-65
2021/03/05 05:20:57;;;;;;;16.90;11.27;;;6.50;74.30;;;;;;4988725;28;20038;-66
2021/03/05 05:23:27;;;;;;;17.35;11.10;;;6.50;74.60;;;;;;4986687;28;20464;-67
2021/03/05 05:25:58;;;;;;;15.90;10.30;;;6.50;74.80;;;;;;4986887;28;20936;-66
2021/03/05 05:28:23;;;;;;;13.50;8.90;;;6.40;74.80;;;;;;4984395;28;20041;-67
2021/03/05 05:30:49;;;;;;;14.40;9.85;;;6.40;74.60;;;;;;4986526;28;20454;-66
2021/03/05 05:33:19;;;;;;;14.40;9.82;;;6.40;74.40;;;;;;4986545;28;20068;-66
2021/03/05 05:35:47;;;;;;;17.85;11.18;;;6.40;74.60;;;;;;4987624;28;20042;-66
2021/03/05 05:38:15;;;;;;;16.10;11.23;;;6.30;74.80;;;;;;4987625;28;20041;-67
2021/03/05 05:40:43;;;;;;;17.08;11.25;;;6.40;74.90;;;;;;4986784;28;20050;-66
2021/03/05 05:43:14;;;;;;;17.50;10.10;;;6.30;74.90;;;;;;4988262;28;20038;-67
2021/03/05 05:45:40;;;;;;;15.07;10.55;;;6.30;74.90;;;;;;4988006;28;22735;-66
2021/03/05 05:48:14;;;;;;;15.93;10.55;;;6.30;75.00;;;;;;4986442;28;20382;-67
2021/03/05 05:50:44;;;;;;;14.48;9.82;;;6.30;75.00;;;;;;4986101;28;20045;-66
2021/03/05 05:53:14;;;;;;;13.80;8.93;;;6.30;74.90;;;;;;4988766;28;20638;-66
2021/03/05 05:55:45;;;;;;;10.98;7.70;;;6.30;74.70;;;;;;5000914;28;20066;-67
2021/03/05 05:58:13;;;;;;;9.25;6.57;;;6.20;74.50;;;;;;4997829;28;20061;-66
2021/03/05 06:00:38;;;;;;;7.18;5.75;;;6.20;74.10;;;;;;4999821;28;20038;-66
2021/03/05 06:03:08;;;;;;;6.97;5.10;;;6.20;73.90;;;;;;5001046;28;20073;-66
2021/03/05 06:05:33;;;;;;;6.45;5.00;;;6.20;73.80;;;;;;5000991;28;20033;-66
2021/03/05 06:07:59;;;;;;;5.30;4.05;;;6.10;73.50;;;;;;4990492;28;20065;-67
2021/03/05 06:10:28;;;;;;;4.43;3.53;;;6.20;73.30;;;;;;4983442;28;20512;-67
2021/03/05 06:12:58;;;;;;;4.65;3.60;;;6.10;73.10;;;;;;4985894;28;20136;-66
2021/03/05 06:15:29;;;;;;;4.95;3.47;;;6.00;72.90;;;;;;4987277;28;20042;-66
2021/03/05 06:18:00;;;;;;;3.78;3.42;;;6.00;73.10;;;;;;4986585;28;20042;-67
2021/03/05 06:20:42;;;;;;;3.70;3.28;;;6.00;73.10;;;;;;5000733;28;20843;-68
2021/03/05 06:23:15;;;;;;;5.40;4.05;;;5.90;72.90;;;;;;4986592;28;20391;-67
2021/03/05 06:25:43;;;;;;;4.15;3.40;;;5.90;73.10;;;;;;4988003;28;20034;-66
2021/03/05 06:28:21;;;;;;;4.28;3.78;;;5.90;73.10;;;;;;4986237;28;20046;-68
2021/03/05 06:30:49;;;;;;;4.85;3.85;;;5.90;73.10;;;;;;4986540;28;20034;-66
2021/03/05 06:33:30;;;;;;;3.70;3.30;;;5.90;72.90;;;;;;4985703;28;20041;-68
2021/03/05 06:36:16;;;;;;;4.40;4.00;;;5.80;73.30;;;;;;4987126;28;20038;-65
2021/03/05 06:38:50;;;;;;;6.97;3.95;;;5.80;73.60;;;;;;4986782;28;20052;-67
2021/03/05 06:41:26;;;;;;;5.55;4.22;;;5.80;73.30;;;;;;4986714;28;20045;-67
2021/03/05 06:44:02;;;;;;;4.45;3.95;;;5.80;73.50;;;;;;4986588;28;20516;-67
2021/03/05 06:46:41;;;;;;;5.72;4.65;;;5.70;73.50;;;;;;4986517;28;20050;-66
2021/03/05 06:49:16;;;;;;;5.30;4.43;;;5.70;73.80;;;;;;4987225;28;20129;-67
2021/03/05 06:51:55;;;;;;;6.53;4.90;;;5.70;73.60;;;;;;4985428;28;20042;-67
2021/03/05 06:54:31;;;;;;;6.68;4.93;;;5.60;73.70;;;;;;4985608;28;20030;-67
2021/03/05 06:56:57;;;;;;;7.68;5.47;;;5.60;73.80;;;;;;4985574;28;20034;-66
2021/03/05 06:59:23;;;;;;;6.15;4.82;;;5.50;73.70;;;;;;4987170;28;20030;-66
2021/03/05 07:01:59;;;;;;;7.13;5.13;;;5.50;73.80;;;;;;4985807;28;20069;-66
2021/03/05 07:04:26;;;;;;;6.93;5.25;;;5.40;73.60;;;;;;4986191;28;20045;-67
2021/03/05 07:07:09;;;;;;;7.57;5.90;;;5.40;74.00;;;;;;4987485;28;20386;-66
2021/03/05 07:09:45;;;;;;;6.20;4.93;;;5.40;74.10;;;;;;4987475;28;20250;-66
2021/03/05 07:12:19;;;;;;;7.00;4.93;;;5.40;74.10;;;;;;4983120;28;20663;-66
2021/03/05 07:14:48;;;;;;;;;;;5.40;74.10;;;;;;4987150;28;20128;-67
2021/03/05 07:17:17;;;;;;;6.18;4.75;;;5.40;75.00;;;;;;4985656;28;19928;-66
2021/03/05 07:19:45;;;;;;;5.53;4.50;;;5.40;74.10;;;;;;4999580;28;20038;-66
2021/03/05 07:22:17;;;;;;;6.45;4.85;;;5.40;74.30;;;;;;5002261;28;20509;-67
2021/03/05 07:24:42;;;;;;;6.53;4.88;;;5.40;74.10;;;;;;5003546;28;20193;-67
2021/03/05 07:27:11;;;;;;;5.43;4.35;;;5.40;75.00;;;;;;5001330;28;20077;-68
2021/03/05 07:29:45;;;;;;;5.78;4.53;;;5.40;75.00;;;;;;4995291;28;20038;-67
2021/03/05 07:32:38;;;;;;;5.75;4.47;;;5.40;74.10;;;;;;4992921;28;20038;-66
2021/03/05 07:35:40;;;;;;;5.57;4.10;;;5.50;74.30;;;;;;4991390;28;20042;-66
2021/03/05 07:38:14;;;;;;;4.63;3.70;;;5.50;74.00;;;;;;4988971;28;20037;-67
2021/03/05 07:40:43;;;;;;;4.43;3.92;;;5.50;74.00;;;;;;4986918;28;20046;-68
2021/03/05 07:43:10;;;;;;;6.72;3.63;;;5.50;73.80;;;;;;4988631;28;20729;-67
2021/03/05 07:45:38;;;;;;;4.55;3.65;;;5.50;73.60;;;;;;4989323;28;20056;-68
2021/03/05 07:48:13;;;;;;;4.97;3.60;;;5.50;73.60;;;;;;4988936;28;20480;-67
2021/03/05 07:50:42;;;;;;;3.83;3.35;;;5.50;73.60;;;;;;4998046;28;20493;-67
2021/03/05 07:53:12;;;;;;;5.20;3.17;;;5.50;73.60;;;;;;4995694;28;20509;-66
2021/03/05 07:55:41;;;;;;;3.83;3.38;;;5.50;73.40;;;;;;4991166;28;20033;-67
2021/03/05 07:58:08;;;;;;;3.97;3.40;;;5.50;73.40;;;;;;4991023;28;20037;-66
2021/03/05 08:00:50;;;;;;;3.83;3.20;;;5.60;73.60;;;;;;4987726;28;20480;-66
2021/03/05 08:03:18;;;;;;;4.13;2.85;;;5.60;74.00;;;;;;4981425;28;20045;-67
2021/03/05 08:05:47;;;;;;;2.83;2.38;;;5.60;73.60;;;;;;4991365;28;20157;-63
2021/03/05 08:08:20;;;;;;;3.25;2.80;;;5.60;73.40;;;;;;4986785;28;20121;-63
2021/03/05 08:10:50;;;;;;;2.97;2.63;;;5.60;73.60;;;;;;4986299;28;20046;-64
2021/03/05 08:13:54;;;;;;;2.60;2.40;;;5.60;73.60;;;;;;5000258;28;20117;-64
2021/03/05 08:16:36;;;;;;;2.22;2.03;;;5.60;73.60;;;;;;5001482;28;20062;-64
2021/03/05 08:19:14;;;;;;;1.80;1.70;;;5.60;74.30;;;;;;5000809;28;20413;-64
2021/03/05 08:21:55;;;;;;;1.50;1.40;;;5.60;73.40;;;;;;5000978;28;20433;-65
2021/03/05 08:24:34;;;;;;;3.15;1.40;;;5.60;73.60;;;;;;5002056;28;20034;-65
2021/03/05 08:27:14;;;;;;;2.40;1.45;;;5.60;73.30;;;;;;5002463;28;20117;-65
2021/03/05 08:29:56;;;;;;;1.75;1.35;;;5.60;73.10;;;;;;4997079;28;20030;-66
2021/03/05 08:32:37;;;;;;;1.58;1.33;;;5.50;73.60;;;;;;4990882;28;20030;-64
2021/03/05 08:35:14;;;;;;;1.40;1.30;;;5.60;73.50;;;;;;5005143;28;20042;-64
2021/03/05 08:37:46;;;;;;;1.92;1.70;;;5.60;73.50;;;;;;4987937;28;20038;-64
2021/03/05 08:40:18;;;;;;;2.40;1.88;;;5.60;73.40;;;;;;4991745;28;20615;-64
2021/03/05 08:42:49;;;;;;;2.17;1.80;;;5.60;73.00;;;;;;4988110;28;20241;-65
2021/03/05 08:45:19;;;;;;;3.15;2.20;;;5.70;73.00;;;;;;4991021;28;20468;-64
2021/03/05 08:47:49;;;;;;;2.75;2.33;;;5.70;73.00;;;;;;4988886;28;20038;-66
2021/03/05 08:50:20;;;;;;;4.18;2.85;;;5.80;73.00;;;;;;4988766;28;20030;-65
2021/03/05 08:52:49;;;;;;;4.93;3.05;;;5.80;72.70;;;;;;4988349;28;20740;-64
2021/03/05 08:55:20;;;;;;;3.63;2.80;;;5.90;72.50;;;;;;4993184;28;20030;-64
2021/03/05 08:57:52;;;;;;;3.28;2.67;;;5.90;72.60;;;;;;4993723;28;20073;-65
2021/03/05 09:00:27;;;;;;;4.05;3.35;;;5.90;72.50;;;;;;4989794;28;20042;-65
2021/03/05 09:03:09;;;;;;;5.13;3.63;;;5.90;72.60;;;;;;4989095;28;20557;-64
2021/03/05 09:05:40;;;;;;;4.88;3.70;;;6.00;72.60;;;;;;4987579;28;20042;-63
2021/03/05 09:08:07;;;;;;;5.30;3.60;;;6.00;72.20;;;;;;4985096;28;20042;-64
2021/03/05 09:10:59;;;;;;;5.63;3.63;;;6.10;72.10;;;;;;4985669;28;20041;-64
2021/03/05 09:13:32;;;;;;;6.85;4.00;;;6.10;72.20;;;;;;4988314;28;20049;-64
2021/03/05 09:16:00;;;;;;;6.68;4.75;;;6.10;71.90;;;;;;4988279;28;20050;-64
2021/03/05 09:18:38;;;;;;;4.88;3.60;;;6.10;71.70;;;;;;4989654;28;20045;-66
2021/03/05 09:21:10;;;;;;;5.63;3.88;;;6.10;71.60;;;;;;4988450;28;20034;-65
2021/03/05 09:23:43;;;;;;;4.95;3.85;;;6.10;71.70;;;;;;4986842;28;20041;-64
2021/03/05 09:26:15;;;;;;;6.32;4.25;;;6.00;71.30;;;;;;4987173;28;20460;-65
2021/03/05 09:29:03;;;;;;;6.35;4.22;;;6.00;71.40;;;;;;4989568;28;20089;-64
2021/03/05 09:31:33;;;;;;;6.28;4.07;;;5.90;71.70;;;;;;4991222;28;20038;-65
2021/03/05 09:34:07;;;;;;;6.63;4.35;;;5.90;71.80;;;;;;4989523;28;20802;-65
2021/03/05 09:36:37;;;;;;;5.55;3.85;;;5.90;72.00;;;;;;4988906;28;20042;-65
2021/03/05 09:39:07;;;;;;;7.05;4.60;;;6.00;72.00;;;;;;4987616;28;20042;-64
2021/03/05 09:41:45;;;;;;;7.30;4.80;;;6.00;71.30;;;;;;4988590;28;20464;-65
2021/03/05 09:44:11;;;;;;;6.47;4.55;;;6.00;70.90;;;;;;4987706;28;20084;-64
2021/03/05 09:46:42;;;;;;;6.03;4.40;;;6.00;70.80;;;;;;4987145;28;20037;-64
2021/03/05 09:49:24;;;;;;;6.82;4.57;;;6.00;71.20;;;;;;4986997;28;20030;-64
2021/03/05 09:51:50;;;;;;;7.78;4.78;;;6.00;71.90;;;;;;4987822;28;20042;-65
2021/03/05 09:54:20;;;;;;;7.60;5.15;;;6.00;71.00;;;;;;4988416;28;20029;-64
2021/03/05 09:56:52;;;;;;;6.80;4.78;;;6.00;70.50;;;;;;4989289;28;20848;-65
2021/03/05 09:59:23;;;;;;;8.13;4.93;;;6.00;70.00;;;;;;4988515;28;20529;-64
2021/03/05 10:01:51;;;;;;;8.00;5.05;;;6.00;70.40;;;;;;4987068;28;20144;-64
2021/03/05 10:04:16;;;;;;;8.52;5.40;;;6.00;70.80;;;;;;4989389;28;20569;-66
2021/03/05 10:06:53;;;;;;;6.47;4.25;;;6.00;70.60;;;;;;4986409;28;20208;-65
2021/03/05 10:09:23;;;;;;;8.07;5.07;;;6.10;71.00;;;;;;4987288;28;20319;-66
2021/03/05 10:11:53;;;;;;;9.23;5.63;;;6.10;70.80;;;;;;4986379;28;20032;-65
2021/03/05 10:14:40;;;;;;;8.82;5.88;;;6.20;70.50;;;;;;4987682;28;20168;-66
2021/03/05 10:17:10;;;;;;;9.02;5.57;;;6.10;70.40;;;;;;4988092;28;20046;-64
2021/03/05 10:19:44;;;;;;;8.43;5.07;;;6.10;70.20;;;;;;4987554;28;20030;-66
2021/03/05 10:22:16;;;;;;;7.78;4.68;;;6.10;70.50;;;;;;4987496;28;20034;-65
2021/03/05 10:24:45;;;;;;;13.07;5.65;;;6.10;70.80;;;;;;4986890;28;20042;-65
2021/03/05 10:27:22;;;;;;;8.18;5.20;;;6.10;70.40;;;;;;4986382;28;20038;-66
2021/03/05 10:29:56;;;;;;;8.43;5.20;;;6.20;70.50;;;;;;4989058;28;20029;-64
2021/03/05 10:32:43;;;;;;;8.85;5.15;;;6.20;70.70;;;;;;4986626;28;20113;-65
2021/03/05 10:35:11;;;;;;;8.93;5.45;;;6.20;70.80;;;;;;4987752;28;20046;-65
2021/03/05 10:37:42;;;;;;;8.52;5.57;;;6.20;70.30;;;;;;4987085;28;20496;-64
2021/03/05 10:40:11;;;;;;;7.70;5.40;;;6.30;70.40;;;;;;4987766;28;20518;-65
2021/03/05 10:42:41;;;;;;;7.53;5.13;;;6.30;69.90;;;;;;4987387;28;20049;-65
2021/03/05 10:45:09;;;;;;;8.70;5.32;;;6.40;69.40;;;;;;4988108;28;20102;-64
2021/03/05 10:47:37;;;;;;;8.18;4.97;;;6.30;69.20;;;;;;4987116;28;20038;-65
2021/03/05 10:50:11;;;;;;;7.25;5.00;;;6.30;69.40;;;;;;4986765;28;20449;-66
2021/03/05 10:52:39;;;;;;;7.72;5.28;;;6.30;69.40;;;;;;4988322;28;20034;-65
2021/03/05 10:55:11;;;;;;;7.65;5.10;;;6.30;69.60;;;;;;4988861;28;20065;-64
2021/03/05 10:57:41;;;;;;;9.25;5.53;;;6.40;69.60;;;;;;4985868;28;20026;-66
2021/03/05 11:00:10;;;;;;;8.45;5.30;;;6.40;69.10;;;;;;4987752;28;20037;-65
2021/03/05 11:02:41;;;;;;;7.28;4.93;;;6.40;69.10;;;;;;4991374;28;20031;-65
2021/03/05 11:05:09;;;;;;;7.05;5.00;;;6.40;69.60;;;;;;4986690;28;20046;-63
2021/03/05 11:07:35;;;;;;;8.48;4.63;;;6.50;69.10;;;;;;4983472;28;20034;-62
2021/03/05 11:10:00;;;;;;;8.23;4.85;;;6.50;69.30;;;;;;4986630;28;20109;-64
2021/03/05 11:12:33;;;;;;;6.80;4.72;;;6.50;69.30;;;;;;4984294;28;20042;-63
2021/03/05 11:15:00;;;;;;;7.60;4.90;;;6.60;69.50;;;;;;4987176;28;20046;-65
2021/03/05 11:17:29;;;;;;;7.88;5.18;;;6.60;70.30;;;;;;4988003;28;20034;-64
2021/03/05 11:19:59;;;;;;;7.68;4.88;;;6.70;69.10;;;;;;4988137;28;20052;-66
2021/03/05 11:22:31;;;;;;;9.13;5.15;;;6.70;68.90;;;;;;4986712;28;20430;-65
2021/03/05 11:24:59;;;;;;;6.30;4.20;;;6.70;68.80;;;;;;4987881;28;20037;-64
2021/03/05 11:27:25;;;;;;;6.07;4.15;;;6.80;69.00;;;;;;4987065;28;20037;-65
2021/03/05 11:29:53;;;;;;;6.78;4.55;;;6.80;68.50;;;;;;4987135;28;20578;-65
2021/03/05 11:32:19;;;;;;;5.13;4.18;;;6.90;68.30;;;;;;4987306;28;20065;-64
2021/03/05 11:34:49;;;;;;;6.25;4.25;;;7.00;68.30;;;;;;4986304;28;20121;-65
2021/03/05 11:37:22;;;;;;;5.95;4.15;;;7.00;68.10;;;;;;4986623;28;20468;-66
2021/03/05 11:39:50;;;;;;;6.85;4.50;;;7.10;67.90;;;;;;4986286;28;20038;-64
2021/03/05 11:42:20;;;;;;;5.97;4.53;;;7.10;67.70;;;;;;4987340;28;20068;-65
2021/03/05 11:44:46;;;;;;;7.45;4.45;;;7.20;67.30;;;;;;4986375;28;20103;-65
2021/03/05 11:47:16;;;;;;;8.05;5.43;;;7.20;67.30;;;;;;4986766;28;20563;-66
2021/03/05 11:49:43;;;;;;;7.55;5.13;;;7.30;67.10;;;;;;4986843;28;20038;-64
2021/03/05 11:52:11;;;;;;;6.90;5.18;;;7.40;67.50;;;;;;4988678;28;20072;-65
2021/03/05 11:54:39;;;;;;;4.93;4.03;;;7.40;65.70;;;;;;4988652;28;20041;-65
2021/03/05 11:57:10;;;;;;;6.97;4.60;;;7.40;66.00;;;;;;4992914;28;20122;-66
2021/03/05 11:59:38;;;;;;;5.15;4.18;;;7.40;65.70;;;;;;4985948;28;20041;-65
2021/03/05 12:02:06;;;;;;;5.15;3.95;;;7.40;65.80;;;;;;4988607;28;20113;-64
2021/03/05 12:04:36;;;;;;;5.05;3.95;;;7.50;66.00;;;;;;4986480;28;20762;-65
2021/03/05 12:07:06;;;;;;;5.53;4.13;;;7.50;65.90;;;;;;4989992;28;20628;-66
2021/03/05 12:09:32;;;;;;;6.07;4.38;;;7.50;65.90;;;;;;4995657;28;20038;-64
2021/03/05 12:12:00;;;;;;;5.93;4.63;;;7.60;65.90;;;;;;4987440;28;20038;-66
2021/03/05 12:14:26;;;;;;;6.68;4.65;;;7.60;65.40;;;;;;4989116;28;20541;-65
2021/03/05 12:16:54;;;;;;;6.35;3.85;;;7.60;65.40;;;;;;4990395;28;20045;-64
2021/03/05 12:19:19;;;;;;;6.07;4.20;;;7.60;65.30;;;;;;4989893;28;20599;-65
2021/03/05 12:21:51;;;;;;;5.05;4.05;;;7.70;64.80;;;;;;4989175;28;20114;-64
2021/03/05 12:24:16;;;;;;;6.35;4.07;;;7.70;64.60;;;;;;4990344;28;20565;-65
2021/03/05 12:26:44;;;;;;;4.93;3.65;;;7.70;64.60;;;;;;4989397;28;20038;-65
2021/03/05 12:29:15;;;;;;;5.50;4.10;;;7.70;64.90;;;;;;4990099;28;20030;-65
2021/03/05 12:31:40;;;;;;;5.85;4.32;;;7.70;64.80;;;;;;4989161;28;20512;-64
2021/03/05 12:34:11;;;;;;;5.85;4.28;;;7.70;64.30;;;;;;4990865;28;20500;-66
2021/03/05 12:36:39;;;;;;;5.57;4.32;;;7.70;64.00;;;;;;4997556;28;20317;-65
2021/03/05 12:39:07;;;;;;;5.43;3.95;;;7.70;64.40;;;;;;4992325;28;20030;-66
2021/03/05 12:41:33;;;;;;;7.68;4.30;;;7.60;64.30;;;;;;4989489;28;20632;-65
2021/03/05 12:44:05;;;;;;;7.40;4.57;;;7.60;64.50;;;;;;4989434;28;20038;-66
2021/03/05 12:46:35;;;;;;;7.03;5.28;;;7.60;64.30;;;;;;4988846;28;20117;-64
2021/03/05 12:49:03;;;;;;;6.32;4.93;;;7.70;64.10;;;;;;4988715;28;20042;-66
2021/03/05 12:51:32;;;;;;;5.63;4.57;;;7.60;64.10;;;;;;4989146;28;20037;-64
2021/03/05 12:54:00;;;;;;;7.43;5.32;;;7.60;63.80;;;;;;4989562;28;20679;-65
2021/03/05 12:56:27;;;;;;;5.78;4.53;;;7.70;63.90;;;;;;4994728;28;20042;-64
2021/03/05 12:58:58;;;;;;;9.25;4.38;;;7.60;63.80;;;;;;5013225;28;20035;-64
2021/03/05 13:01:26;;;;;;;14.88;5.25;;;7.60;63.80;;;;;;5000100;28;20026;-64
2021/03/05 13:03:51;;;;;;;9.32;5.20;;;7.60;64.00;;;;;;4993646;28;20041;-65
2021/03/05 13:06:19;;;;;;;8.60;5.65;;;7.60;64.00;;;;;;4992464;28;20030;-66
2021/03/05 13:08:49;;;;;;;7.00;4.95;;;7.70;63.90;;;;;;4987090;28;20465;-65
2021/03/05 13:11:20;;;;;;;5.75;4.43;;;7.60;63.70;;;;;;4988700;28;20727;-65
2021/03/05 13:13:48;;;;;;;7.18;5.13;;;7.60;63.70;;;;;;4991423;28;20042;-64
2021/03/05 13:16:16;;;;;;;6.18;4.72;;;7.70;63.70;;;;;;4990622;28;20042;-64